createdAt,value
2022-09-29T00:00:38.045Z,21.17
2022-09-29T00:03:39.685Z,20.13
2022-09-29T00:06:41.502Z,21.30
2022-09-29T00:09:43.311Z,20.40
2022-09-29T00:12:45.072Z,20.30
2022-09-29T00:15:58.808Z,20.70
2022-09-29T00:19:00.539Z,19.98
2022-09-29T00:22:02.121Z,21.00
2022-09-29T00:25:03.946Z,18.02
2022-09-29T00:28:05.489Z,19.83
2022-09-29T00:31:08.669Z,19.00
2022-09-29T00:34:10.363Z,18.40
2022-09-29T00:37:12.030Z,19.67
2022-09-29T00:40:13.665Z,21.20
2022-09-29T00:43:22.633Z,20.65
2022-09-29T00:46:49.427Z,19.70
2022-09-29T00:50:13.149Z,19.75
2022-09-29T00:53:21.520Z,19.45
2022-09-29T00:56:24.496Z,21.13
2022-09-29T00:59:40.108Z,19.55
2022-09-29T01:02:55.879Z,18.15
2022-09-29T01:06:05.730Z,21.42
2022-09-29T01:09:11.546Z,19.73
2022-09-29T01:12:13.316Z,21.33
2022-09-29T01:15:18.003Z,21.98
2022-09-29T01:18:19.683Z,21.38
2022-09-29T01:21:42.067Z,20.38
2022-09-29T01:25:09.987Z,21.55
2022-09-29T01:28:50.276Z,22.90
2022-09-29T01:31:58.067Z,21.67
2022-09-29T01:35:20.072Z,20.70
2022-09-29T01:38:40.121Z,19.40
2022-09-29T01:42:22.480Z,19.83
2022-09-29T01:45:33.064Z,19.63
2022-09-29T01:48:39.755Z,20.40
2022-09-29T01:51:54.843Z,19.25
2022-09-29T01:55:09.366Z,19.75
2022-09-29T01:58:17.915Z,20.48
2022-09-29T02:01:21.665Z,20.67
2022-09-29T02:04:32.686Z,20.00
2022-09-29T02:07:40.690Z,19.15
2022-09-29T02:10:57.505Z,18.95
2022-09-29T02:14:16.532Z,20.02
2022-09-29T02:17:22.400Z,20.25
2022-09-29T02:20:24.457Z,19.15
2022-09-29T02:23:26.074Z,19.77
2022-09-29T02:26:31.837Z,19.00
2022-09-29T02:29:34.993Z,19.23
2022-09-29T02:32:36.878Z,18.92
2022-09-29T02:36:01.799Z,19.60
2022-09-29T02:39:31.080Z,19.02
2022-09-29T02:42:54.589Z,19.15
2022-09-29T02:46:17.612Z,20.25
2022-09-29T02:49:34.364Z,19.88
2022-09-29T02:52:55.384Z,19.80
2022-09-29T02:56:04.559Z,21.10
2022-09-29T02:59:13.581Z,19.60
2022-09-29T03:02:16.641Z,18.17
2022-09-29T03:05:22.586Z,20.10
2022-09-29T03:08:24.360Z,17.05
2022-09-29T03:11:25.969Z,17.58
2022-09-29T03:14:27.617Z,18.88
2022-09-29T03:17:29.471Z,18.83
2022-09-29T03:20:31.194Z,16.98
2022-09-29T03:23:32.819Z,18.60
2022-09-29T03:26:35.999Z,17.00
2022-09-29T03:29:37.957Z,20.83
2022-09-29T03:32:39.529Z,17.92
2022-09-29T03:35:44.517Z,16.42
2022-09-29T03:38:47.229Z,17.15
2022-09-29T03:41:49.061Z,17.55
2022-09-29T03:44:50.751Z,18.95
2022-09-29T03:47:52.596Z,16.27
2022-09-29T03:50:55.159Z,16.63
2022-09-29T03:53:56.769Z,17.42
2022-09-29T03:56:58.365Z,17.35
2022-09-29T04:00:00.072Z,16.42
2022-09-29T04:03:01.677Z,15.88
2022-09-29T04:06:03.862Z,17.25
2022-09-29T04:09:05.530Z,17.98
2022-09-29T04:12:07.139Z,18.38
2022-09-29T04:15:09.198Z,19.73
2022-09-29T04:18:11.042Z,20.08
2022-09-29T04:21:12.892Z,16.70
2022-09-29T04:24:14.521Z,17.73
2022-09-29T04:27:16.806Z,18.45
2022-09-29T04:30:18.603Z,19.63
2022-09-29T04:33:20.257Z,20.65
2022-09-29T04:36:22.939Z,19.15
2022-09-29T04:39:24.824Z,19.00
2022-09-29T04:42:26.497Z,20.55
2022-09-29T04:45:28.295Z,19.48
2022-09-29T04:48:34.912Z,17.80
2022-09-29T04:51:37.534Z,19.13
2022-09-29T04:54:39.676Z,21.20
2022-09-29T04:57:44.616Z,21.00
2022-09-29T05:00:46.362Z,21.08
2022-09-29T05:03:48.038Z,19.27
2022-09-29T05:06:49.700Z,20.08
2022-09-29T05:09:51.432Z,21.45
2022-09-29T05:12:53.104Z,20.20
2022-09-29T05:15:57.908Z,19.35
2022-09-29T05:18:59.727Z,18.80
2022-09-29T05:22:02.487Z,22.73
2022-09-29T05:25:04.496Z,19.98
2022-09-29T05:28:06.233Z,21.90
2022-09-29T05:31:09.143Z,20.60
2022-09-29T05:34:11.081Z,21.58
2022-09-29T05:37:12.938Z,22.63
2022-09-29T05:40:14.599Z,20.60
2022-09-29T05:43:16.165Z,18.77
2022-09-29T05:46:18.842Z,21.48
2022-09-29T05:49:21.294Z,19.58
2022-09-29T05:52:22.929Z,21.15
2022-09-29T05:55:24.584Z,21.70
2022-09-29T05:58:26.246Z,21.92
2022-09-29T06:01:28.264Z,22.73
2022-09-29T06:04:30.007Z,20.88
2022-09-29T06:07:31.959Z,22.00
2022-09-29T06:10:34.268Z,20.63
2022-09-29T06:13:40.293Z,19.73
2022-09-29T06:16:41.893Z,20.00
2022-09-29T06:19:44.871Z,20.67
2022-09-29T06:22:46.691Z,22.85
2022-09-29T06:25:48.275Z,20.13
2022-09-29T06:28:49.985Z,21.55
2022-09-29T06:31:51.680Z,19.42
2022-09-29T06:35:12.090Z,18.73
2022-09-29T06:38:13.695Z,20.05
2022-09-29T06:41:15.318Z,20.15
2022-09-29T06:44:16.839Z,20.30
2022-09-29T06:47:18.440Z,18.30
2022-09-29T06:50:20.778Z,18.00
2022-09-29T06:53:35.320Z,16.95
2022-09-29T06:56:39.919Z,18.55
2022-09-29T06:59:41.929Z,18.00
2022-09-29T07:02:46.805Z,17.13
2022-09-29T07:06:01.939Z,17.60
2022-09-29T07:09:15.865Z,18.73
2022-09-29T07:12:18.365Z,15.20
2022-09-29T07:15:19.938Z,14.88
2022-09-29T07:18:21.767Z,15.85
2022-09-29T07:21:23.761Z,16.90
2022-09-29T07:24:25.563Z,15.80
2022-09-29T07:27:27.233Z,14.55
2022-09-29T07:30:38.980Z,13.32
2022-09-29T07:33:41.742Z,14.80
2022-09-29T07:36:43.420Z,16.42
2022-09-29T07:39:45.086Z,13.68
2022-09-29T07:42:46.659Z,14.23
2022-09-29T07:45:50.462Z,12.68
2022-09-29T07:48:52.048Z,13.07
2022-09-29T07:51:53.790Z,12.93
2022-09-29T07:54:55.430Z,11.15
2022-09-29T07:57:57.016Z,11.77
2022-09-29T08:00:58.834Z,12.45
2022-09-29T08:04:02.178Z,11.88
2022-09-29T08:07:03.788Z,12.20
2022-09-29T08:10:15.827Z,11.70
2022-09-29T08:13:19.080Z,10.38
2022-09-29T08:16:21.400Z,12.43
2022-09-29T08:19:23.159Z,11.38
2022-09-29T08:22:24.805Z,11.55
2022-09-29T08:25:26.651Z,12.68
2022-09-29T08:28:32.281Z,11.93
2022-09-29T08:31:34.408Z,10.52
2022-09-29T08:34:36.670Z,12.70
2022-09-29T08:37:38.760Z,12.95
2022-09-29T08:40:40.933Z,11.23
2022-09-29T08:43:44.813Z,9.82
2022-09-29T08:47:06.631Z,9.57
2022-09-29T08:50:28.537Z,10.45
2022-09-29T08:53:33.493Z,10.40
2022-09-29T08:56:35.565Z,11.45
2022-09-29T08:59:37.958Z,10.80
2022-09-29T09:03:10.037Z,8.48
2022-09-29T09:06:26.549Z,9.27
2022-09-29T09:09:34.716Z,7.90
2022-09-29T09:12:50.677Z,8.80
2022-09-29T09:16:09.681Z,7.78
2022-09-29T09:19:36.665Z,7.72
2022-09-29T09:23:00.745Z,7.65
2022-09-29T09:26:03.933Z,8.02
2022-09-29T09:29:36.567Z,7.85
2022-09-29T09:32:46.608Z,7.47
2022-09-29T09:35:59.006Z,7.10
2022-09-29T09:39:14.874Z,6.80
2022-09-29T09:42:21.222Z,6.15
2022-09-29T09:45:30.902Z,5.55
2022-09-29T09:49:16.095Z,6.47
2022-09-29T09:52:23.782Z,5.93
2022-09-29T09:55:26.224Z,6.30
2022-09-29T09:58:52.934Z,6.35
2022-09-29T10:01:54.633Z,6.97
2022-09-29T10:04:56.893Z,7.25
2022-09-29T10:07:58.576Z,7.32
2022-09-29T10:11:00.374Z,6.68
2022-09-29T10:14:11.633Z,5.45
2022-09-29T10:17:17.753Z,5.45
2022-09-29T10:20:33.555Z,5.38
2022-09-29T10:23:35.936Z,5.38
2022-09-29T10:26:38.938Z,5.00
2022-09-29T10:29:49.366Z,4.57
2022-09-29T10:32:58.514Z,5.18
2022-09-29T10:36:08.110Z,4.53
2022-09-29T10:39:39.265Z,4.72
2022-09-29T10:42:45.768Z,4.10
2022-09-29T10:45:49.085Z,4.75
2022-09-29T10:49:11.400Z,4.28
2022-09-29T10:52:25.672Z,4.63
2022-09-29T10:55:48.734Z,4.25
2022-09-29T10:59:01.834Z,3.88
2022-09-29T11:02:19.016Z,4.22
2022-09-29T11:05:25.910Z,4.75
2022-09-29T11:08:27.883Z,4.00
2022-09-29T11:11:37.332Z,3.95
2022-09-29T11:14:38.861Z,4.07
2022-09-29T11:17:50.098Z,3.58
2022-09-29T11:21:10.064Z,3.63
2022-09-29T11:24:30.161Z,3.53
2022-09-29T11:27:58.885Z,3.40
2022-09-29T11:31:18.361Z,3.83
2022-09-29T11:34:35.132Z,3.60
2022-09-29T11:37:45.341Z,3.60
2022-09-29T11:41:00.040Z,3.30
2022-09-29T11:44:10.471Z,3.10
2022-09-29T11:47:17.864Z,2.97
2022-09-29T11:50:30.797Z,2.60
2022-09-29T11:53:45.154Z,2.40
2022-09-29T11:56:55.432Z,2.20
2022-09-29T12:00:17.057Z,2.58
2022-09-29T12:03:39.544Z,2.70
2022-09-29T12:07:10.315Z,3.03
2022-09-29T12:10:49.731Z,2.70
2022-09-29T12:13:57.118Z,3.05
2022-09-29T12:17:20.582Z,2.50
2022-09-29T12:20:25.788Z,2.08
2022-09-29T12:23:30.859Z,2.38
2022-09-29T12:26:34.316Z,2.75
2022-09-29T12:29:46.587Z,2.60
2022-09-29T12:33:08.284Z,4.97
2022-09-29T12:36:33.990Z,8.70
2022-09-29T12:40:05.847Z,5.78
2022-09-29T12:43:22.307Z,5.78
2022-09-29T12:46:36.899Z,5.70
2022-09-29T12:50:10.683Z,6.70
2022-09-29T12:53:54.130Z,6.63
2022-09-29T12:57:32.624Z,7.05
2022-09-29T13:00:37.357Z,7.05
2022-09-29T13:03:53.537Z,7.78
2022-09-29T13:07:14.255Z,7.03
2022-09-29T13:10:45.298Z,5.47
2022-09-29T13:14:20.513Z,4.88
2022-09-29T13:20:51.729Z,5.32
2022-09-29T13:24:05.568Z,4.97
2022-09-29T13:27:30.514Z,4.60
2022-09-29T13:30:37.051Z,5.18
2022-09-29T13:33:39.001Z,5.00
2022-09-29T13:36:45.123Z,4.30
2022-09-29T13:40:11.434Z,3.35
2022-09-29T13:43:37.439Z,3.55
2022-09-29T13:46:40.575Z,3.63
2022-09-29T13:49:42.903Z,3.50
2022-09-29T13:52:48.710Z,3.40
2022-09-29T13:55:50.563Z,4.28
2022-09-29T13:58:52.161Z,2.92
2022-09-29T14:01:53.830Z,3.55
2022-09-29T14:04:56.616Z,3.58
2022-09-29T14:07:58.702Z,3.17
2022-09-29T14:11:11.334Z,3.10
2022-09-29T14:14:29.888Z,3.20
2022-09-29T14:17:39.308Z,3.28
2022-09-29T14:21:20.244Z,3.33
2022-09-29T14:28:01.241Z,3.92
2022-09-29T14:31:04.632Z,3.40
2022-09-29T14:34:11.441Z,3.90
2022-09-29T14:37:20.367Z,4.78
2022-09-29T14:40:31.026Z,3.70
2022-09-29T14:43:55.652Z,3.17
2022-09-29T14:47:48.221Z,3.28
2022-09-29T14:51:18.409Z,2.78
2022-09-29T14:54:43.114Z,2.67
2022-09-29T14:58:14.153Z,2.33
2022-09-29T15:01:30.177Z,2.45
2022-09-29T15:04:38.610Z,2.08
2022-09-29T15:07:42.169Z,3.00
2022-09-29T15:10:43.782Z,3.00
2022-09-29T15:13:45.356Z,2.67
2022-09-29T15:17:09.030Z,2.88
2022-09-29T15:20:33.877Z,2.90
2022-09-29T15:24:04.954Z,2.28
2022-09-29T15:27:12.438Z,2.83
2022-09-29T15:30:18.531Z,2.88
2022-09-29T15:33:24.037Z,2.80
2022-09-29T15:36:31.532Z,2.80
2022-09-29T15:39:33.239Z,2.50
2022-09-29T15:42:38.411Z,3.15
2022-09-29T15:45:39.969Z,3.28
2022-09-29T15:48:41.731Z,3.40
2022-09-29T15:51:56.002Z,3.22
2022-09-29T15:54:58.908Z,3.40
2022-09-29T15:58:02.885Z,3.08
2022-09-29T16:01:14.221Z,4.32
2022-09-29T16:04:17.103Z,3.60
2022-09-29T16:07:32.233Z,3.40
2022-09-29T16:10:58.039Z,3.10
2022-09-29T16:14:19.888Z,3.03
2022-09-29T16:17:27.861Z,2.92
2022-09-29T16:20:32.145Z,3.25
2022-09-29T16:23:49.443Z,3.25
2022-09-29T16:26:54.461Z,4.93
2022-09-29T16:30:23.135Z,3.22
2022-09-29T16:33:35.932Z,2.80
2022-09-29T16:36:43.185Z,4.07
2022-09-29T16:39:53.822Z,3.60
2022-09-29T16:46:06.708Z,3.05
2022-09-29T16:49:20.139Z,2.72
2022-09-29T16:52:32.412Z,3.08
2022-09-29T16:55:34.103Z,3.42
2022-09-29T16:58:36.110Z,3.25
2022-09-29T17:01:40.127Z,3.80
2022-09-29T17:04:41.849Z,2.88
2022-09-29T17:07:44.323Z,3.35
2022-09-29T17:10:45.934Z,3.40
2022-09-29T17:13:47.576Z,3.75
2022-09-29T17:16:51.538Z,3.80
2022-09-29T17:19:56.562Z,4.15
2022-09-29T17:23:00.034Z,5.43
2022-09-29T17:26:21.668Z,4.50
2022-09-29T17:29:23.568Z,4.40
2022-09-29T17:32:25.268Z,5.70
2022-09-29T17:35:29.900Z,4.72
2022-09-29T17:38:31.660Z,5.68
2022-09-29T17:41:33.910Z,5.80
2022-09-29T17:44:37.795Z,5.20
2022-09-29T17:47:39.626Z,6.70
2022-09-29T17:50:54.012Z,5.45
2022-09-29T17:53:55.747Z,5.90
2022-09-29T17:57:02.075Z,5.00
2022-09-29T18:00:11.336Z,5.90
2022-09-29T18:03:13.386Z,5.65
2022-09-29T18:06:21.790Z,5.32
2022-09-29T18:09:23.565Z,5.80
2022-09-29T18:12:25.401Z,5.40
2022-09-29T18:15:29.226Z,5.32
2022-09-29T18:18:30.968Z,5.78
2022-09-29T18:21:33.678Z,5.22
2022-09-29T18:24:35.471Z,6.40
2022-09-29T18:27:37.197Z,6.82
2022-09-29T18:30:41.633Z,5.85
2022-09-29T18:33:43.274Z,6.90
2022-09-29T18:36:45.293Z,6.45
2022-09-29T18:39:47.050Z,6.60
2022-09-29T18:42:55.785Z,7.18
2022-09-29T18:45:58.885Z,7.93
2022-09-29T18:49:02.736Z,7.47
2022-09-29T18:52:04.375Z,7.93
2022-09-29T18:55:06.859Z,8.80
2022-09-29T18:58:17.038Z,7.78
2022-09-29T19:01:23.970Z,8.73
2022-09-29T19:04:25.864Z,8.05
2022-09-29T19:07:27.748Z,6.70
2022-09-29T19:10:33.561Z,8.63
2022-09-29T19:13:35.121Z,7.43
2022-09-29T19:16:37.053Z,7.35
2022-09-29T19:19:38.720Z,6.57
2022-09-29T19:22:43.429Z,8.00
2022-09-29T19:25:46.978Z,8.35
2022-09-29T19:28:48.956Z,8.85
2022-09-29T19:31:50.533Z,8.30
2022-09-29T19:34:53.779Z,9.60
2022-09-29T19:37:59.028Z,8.65
2022-09-29T19:41:01.010Z,8.35
2022-09-29T19:44:02.682Z,7.80
2022-09-29T19:47:04.591Z,7.18
2022-09-29T19:50:26.748Z,8.05
2022-09-29T19:53:28.907Z,8.18
2022-09-29T19:56:30.598Z,7.82
2022-09-29T19:59:36.079Z,7.47
2022-09-29T20:02:37.949Z,7.82
2022-09-29T20:05:39.862Z,8.02
2022-09-29T20:08:41.612Z,8.10
2022-09-29T20:11:46.557Z,8.05
2022-09-29T20:14:49.638Z,9.45
2022-09-29T20:17:52.014Z,8.85
2022-09-29T20:20:54.307Z,9.05
2022-09-29T20:23:56.054Z,9.13
2022-09-29T20:26:58.080Z,9.88
2022-09-29T20:29:59.869Z,10.18
2022-09-29T20:33:01.637Z,9.77
2022-09-29T20:36:05.045Z,10.10
2022-09-29T20:39:06.831Z,9.45
2022-09-29T20:42:08.790Z,10.15
2022-09-29T20:45:10.857Z,9.63
2022-09-29T20:48:12.497Z,10.15
2022-09-29T20:51:17.580Z,8.85
2022-09-29T20:54:20.090Z,8.32
2022-09-29T20:57:21.861Z,9.40
2022-09-29T21:00:25.628Z,10.23
2022-09-29T21:03:27.230Z,9.95
2022-09-29T21:06:30.775Z,11.35
2022-09-29T21:09:32.535Z,11.50
2022-09-29T21:12:34.372Z,9.52
2022-09-29T21:15:36.207Z,9.65
2022-09-29T21:18:37.867Z,9.68
2022-09-29T21:21:41.055Z,10.23
2022-09-29T21:24:42.776Z,9.02
2022-09-29T21:27:44.592Z,9.93
2022-09-29T21:30:46.312Z,9.77
2022-09-29T21:33:55.015Z,9.32
2022-09-29T21:36:56.805Z,9.73
2022-09-29T21:39:58.438Z,10.25
2022-09-29T21:43:00.163Z,9.63
2022-09-29T21:46:07.236Z,9.40
2022-09-29T21:49:10.330Z,8.57
2022-09-29T21:52:12.097Z,10.35
2022-09-29T21:55:13.709Z,9.70
2022-09-29T21:58:15.739Z,10.05
2022-09-29T22:01:18.057Z,10.73
2022-09-29T22:04:20.475Z,10.98
2022-09-29T22:07:22.240Z,10.73
2022-09-29T22:10:24.040Z,10.32
2022-09-29T22:13:26.722Z,10.98
2022-09-29T22:16:30.908Z,9.63
2022-09-29T22:19:32.918Z,10.10
2022-09-29T22:22:34.618Z,9.43
2022-09-29T22:25:43.999Z,9.32
2022-09-29T22:28:46.161Z,9.35
2022-09-29T22:31:48.127Z,9.13
2022-09-29T22:34:49.929Z,9.32
2022-09-29T22:37:51.617Z,8.70
2022-09-29T22:40:53.980Z,8.80
2022-09-29T22:43:58.274Z,9.25
2022-09-29T22:46:59.900Z,9.52
2022-09-29T22:50:01.704Z,9.13
2022-09-29T22:53:03.435Z,9.02
2022-09-29T22:56:18.465Z,9.30
2022-09-29T22:59:20.216Z,10.07
2022-09-29T23:02:21.951Z,9.10
2022-09-29T23:05:23.720Z,9.45
2022-09-29T23:08:25.810Z,9.43
2022-09-29T23:11:27.490Z,9.85
2022-09-29T23:14:29.148Z,8.90
2022-09-29T23:17:32.333Z,8.98
2022-09-29T23:20:33.919Z,8.73
2022-09-29T23:23:36.080Z,8.82
2022-09-29T23:26:37.784Z,9.60
2022-09-29T23:29:39.395Z,9.50
2022-09-29T23:32:41.014Z,8.95
2022-09-29T23:35:42.710Z,9.43
2022-09-29T23:39:04.057Z,8.65
2022-09-29T23:42:08.054Z,8.85
2022-09-29T23:45:10.060Z,7.95
2022-09-29T23:48:12.046Z,8.75
2022-09-29T23:51:14.914Z,9.00
2022-09-29T23:54:18.333Z,9.73
2022-09-29T23:57:20.021Z,9.70
